Time;durP1;ratioP1;P1;durP2;ratioP2;P2;SDS_P1;SDS_P2;PMS_P1;PMS_P2;Temp;Humidity;BMP_temperature;BMP_pressure;BME280_temperature;BME280_humidity;BME280_pressure;Samples;Min_cycle;Max_cycle;Signal;HPM_P1;HPM_P2
2022/01/25 00:28:41;;;;;;;19.10;17.50;;;;;;;22.56;17.49;96334.47;7293839;19;138036;-59
2022/01/25 00:31:10;;;;;;;18.80;17.20;;;;;;;22.57;17.72;96337.94;7293914;19;138049;-58
2022/01/25 00:33:38;;;;;;;18.60;17.00;;;;;;;22.51;17.16;96331.81;7292720;19;136838;-58
2022/01/25 00:36:10;;;;;;;16.93;15.63;;;;;;;22.49;17.91;96332.06;7292918;19;137366;-56
2022/01/25 00:38:35;;;;;;;18.50;16.80;;;;;;;22.56;17.35;96336.34;7277918;19;137553;-59
2022/01/25 00:41:01;;;;;;;17.73;16.20;;;;;;;22.56;17.41;96336.34;7292768;19;137641;-59
2022/01/25 00:43:27;;;;;;;17.83;16.23;;;;;;;22.56;17.83;96333.69;7292220;19;137684;-58
2022/01/25 00:45:57;;;;;;;17.47;15.97;;;;;;;22.49;17.52;96321.41;7292291;19;137315;-58
2022/01/25 00:56:27;;;;;;;18.47;16.70;;;;;;;22.54;17.19;96325.16;7299804;19;137575;-58
2022/01/25 00:58:53;;;;;;;17.00;15.60;;;;;;;22.50;17.47;96315.03;7286469;19;138113;-58
2022/01/25 01:01:20;;;;;;;17.10;15.70;;;;;;;22.54;17.59;96322.50;7299103;19;137497;-60
2022/01/25 01:03:46;;;;;;;16.67;15.27;;;;;;;22.54;17.75;96327.81;7298972;19;136756;-55
2022/01/25 01:06:12;;;;;;;17.07;15.60;;;;;;;22.47;17.20;96326.22;7298516;19;137256;-59
2022/01/25 01:08:37;;;;;;;16.17;14.77;;;;;;;22.52;17.83;96328.91;7298508;19;137105;-57
2022/01/25 01:11:07;;;;;;;16.23;14.83;;;;;;;22.52;17.51;96323.56;7283042;19;137737;-57
2022/01/25 01:30:01;;;;;;;17.27;15.77;;;;;;;22.51;17.53;96311.31;7298488;19;136973;-60
2022/01/25 01:38:12;;;;;;;17.60;16.10;;;;;;;22.45;16.95;96293.75;7298281;19;137327;-59
2022/01/25 01:40:56;;;;;;;16.50;15.20;;;;;;;22.51;17.07;96313.97;7297973;19;137304;-59
2022/01/25 01:48:27;;;;;;;18.70;17.20;;;;;;;22.51;16.84;96302.53;7297633;19;137919;-57
2022/01/25 01:50:54;;;;;;;18.53;17.00;;;;;;;22.50;16.99;96306.25;7296799;19;137216;-55
2022/01/25 01:53:20;;;;;;;18.87;17.20;;;;;;;22.50;17.32;96299.03;7294779;19;137302;-58
2022/01/25 01:55:46;;;;;;;17.80;16.30;;;;;;;22.49;17.40;96297.44;7282440;19;140072;-58
2022/01/25 01:58:14;;;;;;;17.60;16.10;;;;;;;22.48;17.24;96298.53;7296835;19;137140;-59
2022/01/25 02:00:43;;;;;;;18.23;16.73;;;;;;;22.50;16.64;96292.91;7296921;19;137350;-57
2022/01/25 02:03:10;;;;;;;17.60;16.20;;;;;;;22.49;16.99;96294.78;7296850;19;137087;-59
2022/01/25 02:05:36;;;;;;;17.30;15.90;;;;;;;22.48;17.36;96289.72;7283125;19;138114;-58
2022/01/25 02:08:02;;;;;;;17.30;15.90;;;;;;;22.48;16.81;96295.84;7298149;19;137767;-59
2022/01/25 02:10:29;;;;;;;17.33;15.83;;;;;;;22.46;17.33;96279.34;7297620;19;137041;-58
2022/01/25 02:12:55;;;;;;;16.47;15.07;;;;;;;22.40;17.26;96275.13;7296159;19;137260;-59
2022/01/25 02:15:22;;;;;;;16.63;15.23;;;;;;;22.46;16.86;96287.34;7296341;19;137731;-59
2022/01/25 02:22:20;;;;;;;15.40;14.13;;;;;;;22.47;17.20;96286.28;7283308;19;139001;-59
2022/01/25 02:23:25;;;;;;;16.40;15.07;;;;;;;22.48;16.88;96287.06;7297047;19;136902;-56
2022/01/25 02:25:56;;;;;;;18.03;16.50;;;;;;;22.46;16.60;96284.69;7297412;19;137206;-59
2022/01/25 02:28:36;;;;;;;18.33;16.83;;;;;;;22.46;17.06;96282.03;7283652;19;141682;-59
2022/01/25 02:31:04;;;;;;;17.70;16.10;;;;;;;22.45;16.58;96267.09;7297465;19;137036;-59
2022/01/25 02:33:30;;;;;;;17.53;16.13;;;;;;;22.44;17.15;96267.38;7296305;19;137608;-59
2022/01/25 02:35:57;;;;;;;18.53;16.93;;;;;;;22.45;17.19;96277.75;7296372;19;137164;-58
2022/01/25 02:38:26;;;;;;;18.40;16.90;;;;;;;22.44;17.34;96265.50;7282515;19;137026;-59
2022/01/25 02:40:52;;;;;;;19.87;18.10;;;;;;;22.44;16.98;96265.50;7296014;19;137204;-58
2022/01/25 02:43:20;;;;;;;18.40;16.90;;;;;;;22.44;17.16;96268.19;7295606;19;136803;-59
2022/01/25 02:48:55;;;;;;;19.00;17.40;;;;;;;22.43;17.19;96263.94;7294265;19;139248;-59
2022/01/25 02:51:29;;;;;;;19.90;18.20;;;;;;;22.43;16.83;96257.81;7293769;19;137430;-59
2022/01/25 02:53:56;;;;;;;19.17;17.47;;;;;;;22.42;17.00;96256.22;7296173;19;137636;-59
2022/01/25 02:56:23;;;;;;;19.40;17.80;;;;;;;22.42;17.11;96262.34;7293102;19;137143;-59
2022/01/25 02:58:49;;;;;;;19.27;17.70;;;;;;;22.41;16.48;96260.75;7293847;19;137250;-58
2022/01/25 03:01:16;;;;;;;18.43;16.93;;;;;;;22.43;17.07;96258.59;7282609;19;140564;-57
2022/01/25 03:03:42;;;;;;;20.00;18.40;;;;;;;22.42;16.75;96253.53;7295447;19;137311;-57
2022/01/25 03:06:08;;;;;;;20.30;18.60;;;;;;;22.39;17.44;96246.09;7294834;19;136986;-58
2022/01/25 03:08:34;;;;;;;19.80;18.20;;;;;;;22.38;16.81;96245.31;7295540;19;138183;-58
2022/01/25 03:11:00;;;;;;;20.37;18.67;;;;;;;22.39;16.69;96254.88;7280373;19;139544;-59
2022/01/25 03:13:34;;;;;;;21.83;19.93;;;;;;;22.41;16.86;96249.28;7292443;19;137033;-57
2022/01/25 03:16:05;;;;;;;21.30;19.50;;;;;;;22.40;16.70;96253.03;7295285;19;137004;-59
2022/01/25 03:21:15;;;;;;;21.60;19.60;;;;;;;22.34;17.04;96238.13;7294509;19;137612;-58
2022/01/25 03:23:42;;;;;;;21.63;19.73;;;;;;;22.41;16.67;96250.09;7281138;19;136780;-56
2022/01/25 03:26:08;;;;;;;20.50;18.80;;;;;;;22.39;16.62;96246.91;7295058;19;136804;-59
2022/01/25 03:28:33;;;;;;;22.00;20.10;;;;;;;22.42;16.44;96245.56;7294172;19;137530;-58
2022/01/25 03:30:59;;;;;;;21.07;19.17;;;;;;;22.42;16.50;96251.69;7292715;19;137994;-59
2022/01/25 03:33:25;;;;;;;21.37;19.57;;;;;;;22.45;16.30;96250.34;7281251;19;137539;-58
2022/01/25 03:35:50;;;;;;;21.67;19.77;;;;;;;22.44;16.65;96248.75;7294290;19;137276;-58
2022/01/25 03:38:16;;;;;;;21.30;19.33;;;;;;;22.44;16.76;96246.88;7294594;19;136966;-58
2022/01/25 03:40:42;;;;;;;23.17;21.07;;;;;;;22.39;16.49;96236.25;7292666;19;137082;-59
2022/01/25 03:43:09;;;;;;;23.10;21.10;;;;;;;22.42;16.31;96234.91;7293735;19;137742;-58
2022/01/25 03:45:37;;;;;;;22.17;20.27;;;;;;;22.43;16.52;96231.97;7278359;19;136968;-58
2022/01/25 03:50:41;;;;;;;23.30;21.20;;;;;;;22.44;16.46;96227.44;7293831;19;137149;-59
2022/01/25 03:53:11;;;;;;;23.60;21.50;;;;;;;22.45;16.22;96221.03;7292249;19;137958;-59
2022/01/25 03:55:38;;;;;;;22.57;20.57;;;;;;;22.46;16.73;96225.28;7278840;19;137052;-59
2022/01/25 03:58:04;;;;;;;23.53;21.53;;;;;;;22.45;16.25;96215.72;7293048;19;137928;-59
2022/01/25 04:00:30;;;;;;;24.30;22.20;;;;;;;22.45;16.81;96219.19;7291653;19;137283;-58
2022/01/25 04:03:07;;;;;;;24.17;22.07;;;;;;;22.51;16.77;96226.09;7294013;19;137849;-58
2022/01/25 04:06:05;;;;;;;25.00;22.90;;;;;;;22.55;16.42;96225.53;7292801;19;136675;-56
2022/01/25 04:08:24;;;;;;;23.40;21.30;;;;;;;22.56;16.81;96224.47;7290311;19;137388;-58
2022/01/25 04:10:50;;;;;;;22.90;20.90;;;;;;;22.51;17.00;96219.97;7292729;19;137086;-58
2022/01/25 04:13:15;;;;;;;21.13;19.13;;;;;;;22.58;16.98;96227.66;7293621;19;137022;-57
2022/01/25 04:15:46;;;;;;;20.93;19.03;;;;;;;22.61;16.62;96221.78;7293444;19;137915;-59
2022/01/25 04:18:31;;;;;;;21.20;19.30;;;;;;;22.61;17.31;96219.13;7279076;19;138550;-59
2022/01/25 04:21:04;;;;;;;18.83;17.13;;;;;;;22.50;16.72;96197.84;7290358;19;138001;-57
2022/01/25 04:26:14;;;;;;;18.10;16.50;;;;;;;22.58;17.25;96217.78;7293162;19;139282;-56
2022/01/25 04:28:39;;;;;;;19.00;17.30;;;;;;;22.46;18.01;96220.78;7276243;19;139246;-56
2022/01/25 04:31:05;;;;;;;16.80;15.23;;;;;;;22.31;17.70;96202.19;7293253;19;139624;-57
2022/01/25 04:33:40;;;;;;;17.50;16.00;;;;;;;22.25;18.47;96207.81;7292418;19;137384;-57
2022/01/25 04:49:35;;;;;;;14.00;12.90;;;;;;;22.61;18.60;96193.28;7291389;19;137404;-56
2022/01/25 04:52:10;;;;;;;13.90;12.80;;;;;;;22.70;18.78;96204.16;7278499;19;137444;-55
2022/01/25 05:04:55;;;;;;;15.20;13.90;;;;;;;22.69;18.96;96199.91;7292342;19;137542;-56
2022/01/25 05:09:53;;;;;;;42.27;37.77;;;;;;;22.50;19.02;96205.81;7292411;19;137652;-55
2022/01/25 05:12:30;;;;;;;38.20;32.97;;;;;;;22.30;18.86;96202.47;7277530;19;137136;-55
2022/01/25 05:15:00;;;;;;;30.27;27.37;;;;;;;22.40;19.75;96205.09;7290714;19;137119;-57
2022/01/25 05:17:35;;;;;;;29.73;26.83;;;;;;;22.56;18.51;96211.16;7292696;19;137048;-58
2022/01/25 05:22:45;;;;;;;28.07;25.30;;;;;;;22.63;19.34;96219.63;7291731;19;137070;-58
2022/01/25 05:25:10;;;;;;;26.93;24.43;;;;;;;22.63;18.93;96198.31;7273800;19;137550;-58
2022/01/25 05:27:36;;;;;;;28.10;25.10;;;;;;;22.67;18.14;96212.69;7291823;19;136815;-58
2022/01/25 05:30:02;;;;;;;28.00;25.47;;;;;;;22.67;18.02;96202.03;7291171;19;137100;-59
2022/01/25 05:32:32;;;;;;;26.97;24.57;;;;;;;22.66;18.27;96195.91;7288492;19;137407;-58
2022/01/25 05:34:57;;;;;;;26.70;24.33;;;;;;;22.66;17.66;96195.09;7272758;19;137467;-58
2022/01/25 05:37:23;;;;;;;28.63;25.93;;;;;;;22.68;18.07;96199.13;7291359;19;137400;-58
2022/01/25 05:39:49;;;;;;;27.47;24.80;;;;;;;22.48;18.31;96193.88;7289665;19;136964;-57
2022/01/25 05:43:53;;;;;;;27.43;25.03;;;;;;;22.40;18.27;96183.78;7293269;19;137924;-56
2022/01/25 05:45:37;;;;;;;27.10;24.60;;;;;;;22.32;18.34;96185.13;7281667;19;138862;-55
2022/01/25 05:48:02;;;;;;;27.93;25.23;;;;;;;22.26;18.02;96182.78;7292977;19;137553;-57
2022/01/25 05:50:28;;;;;;;27.87;25.30;;;;;;;22.25;19.13;96187.31;7297795;19;137414;-58
2022/01/25 05:52:53;;;;;;;28.37;25.67;;;;;;;22.37;17.83;96184.34;7295449;19;137562;-59
2022/01/25 05:55:20;;;;;;;27.13;24.63;;;;;;;22.46;18.04;96180.81;7295210;19;137521;-59
2022/01/25 05:57:45;;;;;;;26.67;24.27;;;;;;;22.51;17.30;96180.81;7283969;19;136804;-58
2022/01/25 06:00:12;;;;;;;27.20;24.80;;;;;;;22.55;17.55;96183.72;7296036;19;137498;-58
2022/01/25 06:02:37;;;;;;;26.87;24.43;;;;;;;22.58;17.54;96191.16;7297524;19;140192;-59
2022/01/25 06:05:05;;;;;;;25.43;23.00;;;;;;;22.61;17.06;96195.13;7297998;19;136888;-58
2022/01/25 06:07:30;;;;;;;27.37;24.97;;;;;;;22.64;16.85;96205.25;7283468;19;136992;-58
2022/01/25 06:09:56;;;;;;;27.27;24.90;;;;;;;22.63;17.39;96203.66;7296786;19;137186;-58
2022/01/25 06:12:21;;;;;;;27.80;25.20;;;;;;;22.62;17.08;96199.41;7297458;19;137456;-59
2022/01/25 06:14:47;;;;;;;26.23;23.93;;;;;;;22.65;17.05;96212.97;7295828;19;137072;-60
2022/01/25 06:17:12;;;;;;;25.30;23.07;;;;;;;22.64;16.88;96199.91;7296483;19;136977;-56
2022/01/25 06:19:38;;;;;;;25.50;23.17;;;;;;;22.68;17.04;96199.13;7282685;19;137253;-58
2022/01/25 06:22:04;;;;;;;25.03;22.83;;;;;;;22.69;16.92;96197.25;7297496;19;137690;-58
2022/01/25 06:24:29;;;;;;;24.43;21.93;;;;;;;22.68;16.60;96193.78;7296239;19;136886;-58
2022/01/25 06:26:55;;;;;;;23.67;21.63;;;;;;;22.64;17.04;96190.06;7297451;19;137738;-57
2022/01/25 06:29:20;;;;;;;24.37;22.17;;;;;;;22.73;17.18;96203.63;7283157;19;137389;-56
2022/01/25 06:31:49;;;;;;;22.53;20.63;;;;;;;22.74;16.87;96195.34;7295639;19;138056;-56
2022/01/25 06:34:15;;;;;;;23.23;21.03;;;;;;;22.70;16.59;96190.84;7296974;19;137154;-59
2022/01/25 06:36:42;;;;;;;23.10;21.17;;;;;;;22.79;16.68;96202.50;7295124;19;137009;-57
2022/01/25 06:39:08;;;;;;;21.97;20.07;;;;;;;22.79;16.66;96211.28;7295954;19;139337;-58
2022/01/25 06:41:36;;;;;;;20.30;18.50;;;;;;;22.81;17.27;96200.34;7281718;19;138071;-58
2022/01/25 06:44:02;;;;;;;19.60;17.80;;;;;;;22.84;16.85;96201.69;7297374;19;137406;-59
2022/01/25 06:46:28;;;;;;;20.40;18.70;;;;;;;22.78;16.54;96184.94;7295878;19;137967;-55
2022/01/25 06:48:53;;;;;;;20.10;18.33;;;;;;;22.85;17.17;96190.00;7294368;19;137273;-58
2022/01/25 06:51:19;;;;;;;19.33;17.63;;;;;;;22.86;17.11;96184.38;7282384;19;137247;-59
2022/01/25 06:53:44;;;;;;;19.53;17.83;;;;;;;22.86;17.15;96184.38;7294551;19;137539;-58
2022/01/25 06:56:10;;;;;;;19.37;17.73;;;;;;;22.88;16.65;96182.25;7296172;19;137009;-57
2022/01/25 06:58:35;;;;;;;18.87;17.27;;;;;;;22.88;17.23;96178.78;7296602;19;137024;-59
2022/01/25 07:01:01;;;;;;;21.50;19.60;;;;;;;22.67;16.50;96138.09;7292825;19;137327;-58
2022/01/25 07:03:27;;;;;;;19.77;17.97;;;;;;;22.89;16.83;96175.84;7283204;19;137961;-57
2022/01/25 07:05:52;;;;;;;19.53;17.77;;;;;;;22.89;17.17;96178.50;7296061;19;137619;-56
2022/01/25 07:08:18;;;;;;;19.00;17.40;;;;;;;22.89;17.22;96175.84;7295184;19;138083;-58
2022/01/25 07:10:44;;;;;;;17.10;15.53;;;;;;;22.90;16.89;96188.09;7295750;19;137665;-57
2022/01/25 07:13:09;;;;;;;17.77;16.27;;;;;;;22.89;16.83;96177.72;7282735;19;137891;-57
2022/01/25 07:15:35;;;;;;;16.90;15.47;;;;;;;22.89;17.19;96175.84;7294818;19;137207;-57
2022/01/25 07:18:00;;;;;;;17.50;16.00;;;;;;;22.92;16.92;96175.28;7295154;19;137347;-60
2022/01/25 07:20:26;;;;;;;18.47;16.87;;;;;;;22.96;16.66;96173.66;7293848;19;137347;-58
2022/01/25 07:22:52;;;;;;;16.70;15.30;;;;;;;22.98;16.58;96174.16;7295379;19;137096;-60
2022/01/25 07:25:18;;;;;;;15.83;14.57;;;;;;;22.99;17.13;96175.75;7280982;19;137419;-58
2022/01/25 07:27:43;;;;;;;17.67;16.17;;;;;;;23.01;16.79;96175.47;7295521;19;137252;-59
2022/01/25 07:30:09;;;;;;;16.67;15.27;;;;;;;22.99;16.74;96166.97;7294924;19;137432;-58
2022/01/25 07:32:35;;;;;;;16.80;15.40;;;;;;;23.07;16.58;96179.72;7294274;19;136938;-59
2022/01/25 07:35:00;;;;;;;15.03;13.83;;;;;;;22.83;17.22;96155.59;7294011;19;137458;-58
2022/01/25 07:37:26;;;;;;;15.30;14.10;;;;;;;23.04;17.43;96167.75;7284321;19;137140;-59
2022/01/25 07:39:51;;;;;;;15.67;14.37;;;;;;;23.21;17.15;96161.22;7294088;19;137278;-57
2022/01/25 07:42:18;;;;;;;16.00;14.53;;;;;;;23.19;17.08;96158.03;7295796;19;138482;-58
2022/01/25 07:44:44;;;;;;;15.30;14.00;;;;;;;23.32;16.57;96157.38;7294789;19;136912;-58
2022/01/25 07:47:11;;;;;;;15.73;14.43;;;;;;;23.40;16.96;96164.78;7280062;19;137699;-58
2022/01/25 07:49:37;;;;;;;14.57;13.37;;;;;;;23.46;17.06;96173.53;7293935;19;137476;-58
2022/01/25 07:52:04;;;;;;;15.53;14.20;;;;;;;23.47;17.24;96170.59;7293971;19;137532;-57
2022/01/25 07:54:29;;;;;;;14.60;13.40;;;;;;;23.47;17.15;96175.94;7292880;19;136995;-57
2022/01/25 07:56:56;;;;;;;14.50;13.30;;;;;;;23.51;17.25;96170.81;7294806;19;136870;-57
2022/01/25 07:59:22;;;;;;;14.77;13.57;;;;;;;23.51;17.28;96171.63;7280465;19;137082;-58
2022/01/25 08:01:49;;;;;;;13.80;12.70;;;;;;;23.58;16.94;96172.13;7293863;19;137461;-58
2022/01/25 08:04:15;;;;;;;15.40;14.00;;;;;;;23.58;16.71;96158.78;7294557;19;137134;-56
2022/01/25 08:06:41;;;;;;;15.30;14.00;;;;;;;23.67;16.73;96165.09;7292308;19;137181;-57
2022/01/25 08:09:07;;;;;;;15.10;13.90;;;;;;;23.83;16.74;96162.28;7279711;19;137392;-55
2022/01/25 08:11:34;;;;;;;15.67;14.40;;;;;;;23.91;16.67;96153.66;7293668;19;137279;-59
2022/01/25 08:14:11;;;;;;;15.50;14.20;;;;;;;23.96;17.17;96161.63;7294421;19;137147;-58
2022/01/25 08:16:39;;;;;;;15.33;14.10;;;;;;;23.96;17.11;96157.06;7293320;19;137744;-59
2022/01/25 08:19:04;;;;;;;16.00;14.70;;;;;;;24.03;17.22;96148.72;7293081;19;137277;-59
2022/01/25 08:21:30;;;;;;;15.77;14.50;;;;;;;24.05;17.54;96154.59;7279452;19;137158;-59
2022/01/25 08:23:55;;;;;;;16.73;15.33;;;;;;;24.05;17.32;96151.91;7293184;19;136766;-56
2022/01/25 08:26:21;;;;;;;15.60;14.40;;;;;;;23.82;16.95;96116.13;7293926;19;137444;-55
2022/01/25 08:28:46;;;;;;;16.53;15.23;;;;;;;24.10;17.48;96153.72;7294090;19;137612;-56
2022/01/25 08:31:12;;;;;;;16.17;14.77;;;;;;;24.09;17.17;96157.47;7279568;19;136964;-55
2022/01/25 08:33:39;;;;;;;16.60;15.40;;;;;;;24.15;17.54;96143.78;7293365;19;137750;-57
2022/01/25 08:36:05;;;;;;;17.00;15.60;;;;;;;24.10;17.80;96143.03;7293748;19;137817;-59
2022/01/25 08:38:30;;;;;;;17.20;15.77;;;;;;;24.05;17.73;96156.47;7293152;19;138287;-58
2022/01/25 08:40:56;;;;;;;17.73;16.23;;;;;;;24.01;17.13;96145.53;7291630;19;137355;-57
2022/01/25 08:43:22;;;;;;;17.57;16.10;;;;;;;24.01;17.66;96149.00;7279171;19;137030;-59
2022/01/25 08:45:47;;;;;;;18.13;16.60;;;;;;;23.96;17.36;96146.38;7292549;19;137251;-58
2022/01/25 08:48:13;;;;;;;18.17;16.67;;;;;;;23.91;17.17;96140.31;7292513;19;137414;-59
2022/01/25 08:50:38;;;;;;;16.90;15.50;;;;;;;23.98;17.58;96143.44;7293042;19;137011;-58
2022/01/25 08:53:04;;;;;;;17.00;15.70;;;;;;;23.99;17.52;96132.47;7276116;19;137365;-60
2022/01/25 08:55:30;;;;;;;17.13;15.73;;;;;;;24.03;17.43;96134.59;7290638;19;137368;-57
2022/01/25 08:57:57;;;;;;;16.10;14.87;;;;;;;24.03;17.64;96140.72;7293090;19;137100;-58
2022/01/25 09:00:22;;;;;;;15.60;14.30;;;;;;;24.05;17.37;96141.22;7290766;19;137015;-60
2022/01/25 09:02:48;;;;;;;16.10;14.80;;;;;;;24.06;17.72;96144.69;7292472;19;136872;-58
2022/01/25 09:05:13;;;;;;;15.63;14.33;;;;;;;24.06;17.81;96137.47;7278336;19;137408;-59
2022/01/25 09:07:39;;;;;;;15.53;14.33;;;;;;;24.06;17.94;96140.16;7291502;19;137148;-58
2022/01/25 09:10:06;;;;;;;16.40;15.00;;;;;;;24.05;17.70;96127.88;7292737;19;137538;-58
2022/01/25 09:12:32;;;;;;;15.07;13.87;;;;;;;24.03;17.45;96114.03;7297038;19;136753;-57
2022/01/25 09:14:57;;;;;;;15.73;14.43;;;;;;;24.06;17.61;96113.44;7285266;19;137206;-58
2022/01/25 09:17:23;;;;;;;14.67;13.43;;;;;;;23.98;17.86;96103.38;7298992;19;137583;-58
2022/01/25 09:19:48;;;;;;;14.90;13.60;;;;;;;24.01;18.01;96102.81;7298378;19;136999;-57
2022/01/25 09:22:14;;;;;;;15.00;13.80;;;;;;;23.99;18.19;96118.31;7297896;19;137251;-60
2022/01/25 09:24:39;;;;;;;14.50;13.40;;;;;;;23.95;17.65;96119.97;7298928;19;137139;-59
2022/01/25 09:27:08;;;;;;;15.60;14.30;;;;;;;23.94;17.99;96118.41;7285721;19;137469;-60
2022/01/25 09:29:34;;;;;;;15.07;13.77;;;;;;;23.87;18.24;96107.28;7297912;19;137269;-60
2022/01/25 09:31:59;;;;;;;14.63;13.50;;;;;;;23.85;17.60;96101.41;7299262;19;136675;-59
2022/01/25 09:34:27;;;;;;;13.73;12.70;;;;;;;23.90;17.66;96104.03;7298486;19;139112;-60
2022/01/25 09:36:53;;;;;;;14.23;13.10;;;;;;;23.91;18.11;96100.28;7284764;19;137122;-59
2022/01/25 09:39:19;;;;;;;14.97;13.73;;;;;;;23.90;17.54;96098.69;7298291;19;137614;-59
2022/01/25 09:41:45;;;;;;;13.80;12.70;;;;;;;23.91;17.38;96108.28;7295124;19;137454;-58
2022/01/25 09:44:11;;;;;;;14.17;13.07;;;;;;;23.93;17.40;96106.13;7298067;19;138114;-59
2022/01/25 09:46:39;;;;;;;14.00;12.90;;;;;;;23.91;17.36;96106.41;7298079;19;137976;-59
2022/01/25 09:49:05;;;;;;;14.33;13.23;;;;;;;23.94;17.97;96100.50;7284984;19;137797;-58
2022/01/25 09:51:31;;;;;;;14.00;12.80;;;;;;;23.95;17.88;96086.06;7296671;19;137187;-59
2022/01/25 09:53:56;;;;;;;13.93;12.83;;;;;;;23.96;17.88;96092.22;7298077;19;138063;-59
2022/01/25 09:56:22;;;;;;;13.63;12.53;;;;;;;23.98;17.14;96082.03;7298750;19;137717;-59
2022/01/25 09:58:49;;;;;;;14.40;13.30;;;;;;;23.96;17.92;96076.97;7283229;19;137052;-58
2022/01/25 10:01:15;;;;;;;13.73;12.10;;;;;;;23.93;17.24;96061.53;7296127;19;136868;-57
2022/01/25 10:03:42;;;;;;;13.30;12.20;;;;;;;24.01;17.67;96073.44;7297514;19;138251;-57
2022/01/25 10:06:15;;;;;;;13.00;12.00;;;;;;;24.05;17.41;96068.34;7297245;19;137111;-58
2022/01/25 10:08:42;;;;;;;13.53;12.50;;;;;;;24.04;17.64;96069.44;7298022;19;137817;-58
2022/01/25 10:11:10;;;;;;;13.60;12.50;;;;;;;24.06;17.45;96072.63;7283365;19;136863;-58
2022/01/25 10:13:40;;;;;;;13.23;12.13;;;;;;;24.07;17.56;96066.97;7295949;19;137322;-57
2022/01/25 10:16:08;;;;;;;12.77;11.77;;;;;;;24.07;17.31;96061.66;7297465;19;137609;-57
2022/01/25 10:18:42;;;;;;;13.20;12.10;;;;;;;24.07;17.19;96066.97;7297006;19;137522;-59
2022/01/25 10:21:13;;;;;;;12.93;11.80;;;;;;;24.08;17.67;96067.78;7282280;19;138043;-57
2022/01/25 10:23:40;;;;;;;13.97;12.87;;;;;;;24.09;17.70;96053.34;7293911;19;137429;-58
2022/01/25 10:26:07;;;;;;;12.83;11.83;;;;;;;24.09;17.32;96053.34;7297347;19;137450;-58
2022/01/25 10:28:33;;;;;;;12.60;11.60;;;;;;;24.07;17.53;96050.16;7297323;19;137767;-57
2022/01/25 10:31:01;;;;;;;12.63;11.63;;;;;;;24.08;17.15;96047.22;7298360;19;138478;-59
2022/01/25 10:33:39;;;;;;;12.80;11.80;;;;;;;23.89;17.76;96017.03;7282498;19;140368;-59
2022/01/25 10:36:19;;;;;;;12.33;11.33;;;;;;;24.09;17.73;96040.78;7297049;19;137461;-57
2022/01/25 10:38:48;;;;;;;12.77;11.77;;;;;;;24.07;17.79;96037.63;7297229;19;136973;-59
2022/01/25 10:41:22;;;;;;;11.67;10.70;;;;;;;24.09;17.66;96023.97;7295649;19;137046;-58
2022/01/25 10:43:49;;;;;;;12.33;11.33;;;;;;;24.10;17.12;96021.00;7281935;19;139314;-57
2022/01/25 10:46:16;;;;;;;11.93;11.03;;;;;;;24.04;17.54;96026.72;7297198;19;137775;-58
2022/01/25 10:48:45;;;;;;;12.20;11.20;;;;;;;24.09;17.83;96022.09;7296322;19;137034;-58
2022/01/25 10:51:15;;;;;;;13.03;12.03;;;;;;;24.09;17.65;96030.09;7295186;19;136956;-60
2022/01/25 10:53:41;;;;;;;11.60;10.70;;;;;;;24.09;17.46;96026.66;7282496;19;137610;-58
2022/01/25 10:56:08;;;;;;;12.50;11.50;;;;;;;24.10;17.70;96026.34;7293598;19;137574;-59
2022/01/25 10:58:39;;;;;;;12.60;11.60;;;;;;;24.10;17.28;96013.00;7295499;19;136758;-59
2022/01/25 11:01:05;;;;;;;10.93;10.03;;;;;;;24.08;17.57;96006.38;7295969;19;137360;-59
2022/01/25 11:03:35;;;;;;;11.50;10.50;;;;;;;24.07;17.86;96000.25;7295699;19;138088;-57
2022/01/25 11:06:18;;;;;;;12.20;11.20;;;;;;;24.08;17.85;96006.38;7281967;19;137682;-59
2022/01/25 11:08:46;;;;;;;11.50;10.60;;;;;;;24.06;17.67;96003.19;7296245;19;138051;-58
2022/01/25 11:11:26;;;;;;;11.30;10.40;;;;;;;23.99;17.59;95984.84;7296116;19;136929;-58
2022/01/25 11:13:54;;;;;;;11.73;10.83;;;;;;;24.06;17.21;95987.19;7294330;19;137909;-57
2022/01/25 11:16:20;;;;;;;11.43;10.50;;;;;;;24.06;17.37;95990.66;7281962;19;137357;-58
2022/01/25 11:18:46;;;;;;;12.13;11.23;;;;;;;24.04;17.35;95986.69;7297485;19;137765;-58
2022/01/25 11:21:12;;;;;;;13.20;12.10;;;;;;;24.03;17.64;95987.75;7294557;19;138540;-58
2022/01/25 11:23:40;;;;;;;11.90;10.90;;;;;;;24.02;18.06;95984.31;7295631;19;137355;-55
2022/01/25 11:26:09;;;;;;;11.40;10.50;;;;;;;24.00;17.68;95976.56;7295110;19;138569;-57
2022/01/25 11:28:38;;;;;;;11.80;10.90;;;;;;;24.00;17.47;95981.09;7280575;19;137252;-57
2022/01/25 11:31:10;;;;;;;11.87;10.87;;;;;;;23.99;17.90;95966.16;7294967;19;136837;-57
2022/01/25 11:33:41;;;;;;;12.20;11.20;;;;;;;23.95;18.01;95962.50;7294340;19;136963;-57
2022/01/25 11:36:10;;;;;;;11.83;10.83;;;;;;;23.97;17.36;95963.78;7294117;19;137232;-59
2022/01/25 11:38:42;;;;;;;10.70;9.90;;;;;;;23.94;17.84;95969.72;7281863;19;137901;-58
2022/01/25 11:41:13;;;;;;;11.77;10.87;;;;;;;23.92;17.98;95958.53;7293359;19;137246;-58
2022/01/25 11:43:42;;;;;;;12.10;11.20;;;;;;;23.85;18.01;95935.94;7294392;19;137306;-60
2022/01/25 11:46:08;;;;;;;11.17;10.23;;;;;;;23.89;18.03;95940.44;7294867;19;137856;-60
2022/01/25 11:48:41;;;;;;;12.10;11.10;;;;;;;23.84;17.63;95934.34;7282291;19;137863;-59
2022/01/25 11:51:20;;;;;;;12.00;11.10;;;;;;;23.85;18.04;95933.25;7293777;19;137300;-58
2022/01/25 11:53:49;;;;;;;11.30;10.40;;;;;;;23.91;17.55;95937.47;7293996;19;137358;-55
2022/01/25 11:56:17;;;;;;;11.37;10.57;;;;;;;23.93;17.42;95929.97;7294722;19;137545;-59
2022/01/25 11:58:53;;;;;;;11.80;10.80;;;;;;;23.96;17.50;95932.03;7294020;19;137163;-59
2022/01/25 12:01:20;;;;;;;11.17;10.37;;;;;;;23.99;17.44;95924.25;7280709;19;138352;-58
2022/01/25 12:03:50;;;;;;;11.10;10.20;;;;;;;24.01;17.68;95918.63;7294588;19;138102;-58
2022/01/25 12:06:26;;;;;;;11.17;10.27;;;;;;;24.03;17.95;95929.81;7293966;19;137781;-59
2022/01/25 12:11:48;;;;;;;11.83;10.93;;;;;;;24.04;17.28;95906.59;7281338;19;137044;-58
2022/01/25 12:14:25;;;;;;;11.80;10.87;;;;;;;24.06;17.50;95907.09;7293839;19;137177;-58
2022/01/25 12:17:09;;;;;;;10.70;9.90;;;;;;;24.05;17.53;95903.63;7293845;19;137930;-59
2022/01/25 12:19:50;;;;;;;11.27;10.37;;;;;;;24.06;17.53;95905.22;7292924;19;137275;-58
2022/01/25 12:22:40;;;;;;;11.87;10.90;;;;;;;24.05;17.71;95908.97;7278051;19;136583;-58
2022/01/25 12:25:25;;;;;;;11.60;10.60;;;;;;;23.99;17.24;95892.22;7294340;19;137693;-58
2022/01/25 12:27:58;;;;;;;10.13;9.40;;;;;;;24.01;17.72;95898.06;7292832;19;137811;-58
2022/01/25 12:30:58;;;;;;;12.73;11.60;;;;;;;24.03;17.32;95900.47;7294182;19;138101;-59
2022/01/25 12:33:29;;;;;;;11.23;9.90;;;;;;;24.06;17.50;95899.88;7279880;19;137912;-59
2022/01/25 12:35:57;;;;;;;11.40;10.50;;;;;;;24.04;18.03;95891.38;7292000;19;137294;-58
2022/01/25 12:38:46;;;;;;;11.63;10.73;;;;;;;24.03;17.76;95884.44;7294276;19;137488;-58
2022/01/25 12:41:21;;;;;;;11.53;10.53;;;;;;;24.03;17.31;95886.31;7290741;19;137262;-56
2022/01/25 12:43:54;;;;;;;12.07;11.07;;;;;;;24.04;17.41;95875.34;7279900;19;136864;-58
2022/01/25 12:46:24;;;;;;;11.40;10.50;;;;;;;24.01;17.87;95874.03;7295545;19;137645;-56
2022/01/25 12:48:52;;;;;;;10.70;9.90;;;;;;;24.02;17.92;95866.84;7299760;19;137536;-59
2022/01/25 12:51:24;;;;;;;12.10;11.20;;;;;;;24.01;17.23;95865.22;7299216;19;137451;-59
2022/01/25 12:53:53;;;;;;;12.10;11.00;;;;;;;24.00;17.80;95859.09;7299850;19;136793;-58
2022/01/25 12:56:21;;;;;;;10.77;9.87;;;;;;;23.99;17.23;95857.50;7284827;19;137322;-58
2022/01/25 12:58:51;;;;;;;11.43;10.63;;;;;;;24.01;17.75;95859.88;7301014;19;137913;-59
2022/01/25 13:01:20;;;;;;;11.80;10.90;;;;;;;23.99;17.48;95854.84;7298597;19;137399;-57
2022/01/25 13:03:47;;;;;;;11.27;10.37;;;;;;;24.00;17.84;95853.75;7298933;19;136839;-59